createdAt,value
2023-03-21T00:01:00.413Z,85.23
2023-03-21T00:03:29.149Z,86.55
2023-03-21T00:05:57.919Z,86.14
2023-03-21T00:08:27.056Z,85.65
2023-03-21T00:11:02.220Z,84.89
2023-03-21T00:13:33.030Z,85.01
2023-03-21T00:19:18.217Z,84.91
2023-03-21T00:22:06.611Z,86.02
2023-03-21T00:24:37.684Z,84.94
2023-03-21T00:27:44.829Z,86.31
2023-03-21T00:29:57.339Z,86.45
2023-03-21T00:32:26.473Z,86.92
2023-03-21T00:35:11.784Z,85.32
2023-03-21T00:37:44.125Z,85.31
2023-03-21T00:40:24.951Z,85.83
2023-03-21T00:42:55.194Z,84.56
2023-03-21T00:48:37.372Z,83.98
2023-03-21T00:51:15.684Z,85.01
2023-03-21T00:53:44.399Z,85.05
2023-03-21T00:56:12.961Z,84.68
2023-03-21T00:58:41.656Z,85.12
2023-03-21T01:01:10.900Z,85.12
2023-03-21T01:03:42.983Z,84.60
2023-03-21T01:06:14.140Z,84.50
2023-03-21T01:08:52.322Z,83.68
2023-03-21T01:11:28.954Z,84.57
2023-03-21T01:14:10.722Z,84.82
2023-03-21T01:16:47.195Z,84.98
2023-03-21T01:19:26.295Z,85.29
2023-03-21T01:21:58.590Z,85.22
2023-03-21T01:24:27.622Z,85.11
2023-03-21T01:26:56.904Z,85.26
2023-03-21T01:29:25.715Z,84.33
2023-03-21T01:31:54.286Z,84.52
2023-03-21T01:34:22.942Z,83.89
2023-03-21T01:36:52.356Z,84.57
2023-03-21T01:39:22.662Z,85.17
2023-03-21T01:41:52.044Z,85.12
2023-03-21T01:44:29.145Z,84.45
2023-03-21T01:47:13.426Z,84.37
2023-03-21T01:49:49.797Z,84.66
2023-03-21T01:54:40.659Z,84.33
2023-03-21T01:57:16.266Z,84.93
2023-03-21T01:59:50.971Z,85.21
2023-03-21T02:03:18.893Z,85.19
2023-03-21T02:06:09.153Z,85.73
2023-03-21T02:08:40.129Z,85.53
2023-03-21T02:11:11.101Z,85.82
2023-03-21T02:13:41.758Z,86.12
2023-03-21T02:16:47.898Z,85.71
2023-03-21T02:19:52.687Z,85.65
2023-03-21T02:22:55.892Z,86.02
2023-03-21T02:25:43.769Z,85.84
2023-03-21T02:28:35.318Z,86.01
2023-03-21T02:31:28.985Z,84.34
2023-03-21T02:35:07.900Z,84.10
2023-03-21T02:38:11.053Z,85.13
2023-03-21T02:41:10.141Z,85.98
2023-03-21T02:43:58.641Z,86.24
2023-03-21T02:46:48.876Z,84.78
2023-03-21T02:49:31.706Z,84.81
2023-03-21T02:52:12.157Z,84.61
2023-03-21T02:54:48.323Z,84.94
2023-03-21T02:57:19.837Z,85.21
2023-03-21T02:59:55.452Z,85.15
2023-03-21T03:02:31.260Z,85.31
2023-03-21T03:05:00.019Z,85.00
2023-03-21T03:08:05.755Z,86.78
2023-03-21T03:11:14.313Z,85.73
2023-03-21T03:13:58.165Z,85.00
2023-03-21T03:16:37.565Z,84.91
2023-03-21T03:19:10.568Z,85.51
2023-03-21T03:21:56.240Z,85.86
2023-03-21T03:24:39.274Z,86.23
2023-03-21T03:27:15.178Z,84.87
2023-03-21T03:29:46.630Z,84.58
2023-03-21T03:32:29.867Z,85.24
2023-03-21T03:34:59.053Z,86.33
2023-03-21T03:37:37.428Z,85.39
2023-03-21T03:40:19.420Z,85.31
2023-03-21T03:42:57.910Z,85.66
2023-03-21T03:45:47.127Z,86.26
2023-03-21T03:48:51.455Z,86.20
2023-03-21T03:51:36.857Z,85.48
2023-03-21T03:54:54.252Z,87.10
2023-03-21T03:57:25.798Z,86.88
2023-03-21T03:59:53.425Z,87.12
2023-03-21T04:02:27.294Z,87.82
2023-03-21T04:04:57.322Z,87.57
2023-03-21T04:07:24.718Z,87.95
2023-03-21T04:09:54.128Z,88.23
2023-03-21T04:12:21.490Z,89.06
2023-03-21T04:15:32.683Z,88.85
2023-03-21T04:18:11.529Z,88.68
2023-03-21T04:20:39.165Z,88.91
2023-03-21T04:23:07.360Z,89.53
2023-03-21T04:25:38.730Z,88.85
2023-03-21T04:28:08.018Z,88.80
2023-03-21T04:30:51.889Z,88.72
2023-03-21T04:33:26.308Z,89.28
2023-03-21T04:35:56.342Z,89.82
2023-03-21T04:38:30.980Z,89.68
2023-03-21T04:41:04.084Z,89.46
2023-03-21T04:43:33.554Z,89.32
2023-03-21T04:46:02.462Z,89.45
2023-03-21T04:48:30.079Z,89.38
2023-03-21T04:51:00.211Z,89.42
2023-03-21T04:53:29.607Z,89.52
2023-03-21T04:55:58.101Z,89.37
2023-03-21T04:58:27.031Z,89.37
2023-03-21T05:00:54.993Z,89.06
2023-03-21T05:03:24.018Z,89.11
2023-03-21T05:05:54.778Z,89.19
2023-03-21T05:08:22.460Z,88.98
2023-03-21T05:10:51.696Z,88.96
2023-03-21T05:13:20.299Z,88.87
2023-03-21T05:17:07.404Z,89.14
2023-03-21T05:22:24.266Z,89.06
2023-03-21T05:24:55.867Z,89.07
2023-03-21T05:28:08.352Z,88.86
2023-03-21T05:30:36.326Z,88.55
2023-03-21T05:33:04.282Z,88.36
2023-03-21T05:35:31.838Z,88.00
2023-03-21T05:38:03.382Z,87.91
2023-03-21T05:40:35.119Z,87.98
2023-03-21T05:43:04.899Z,87.81
2023-03-21T05:45:40.371Z,87.82
2023-03-21T05:48:23.088Z,87.43
2023-03-21T05:51:12.816Z,87.65
2023-03-21T05:54:26.199Z,86.92
2023-03-21T05:56:54.703Z,86.50
2023-03-21T05:59:31.754Z,86.54
2023-03-21T06:01:59.647Z,86.47
2023-03-21T06:04:28.275Z,85.74
2023-03-21T06:06:59.575Z,85.54
2023-03-21T06:09:31.223Z,85.66
2023-03-21T06:12:27.305Z,85.87
2023-03-21T06:15:26.152Z,85.40
2023-03-21T06:18:20.985Z,84.86
2023-03-21T06:23:34.028Z,84.82
2023-03-21T06:26:02.650Z,83.85
2023-03-21T06:28:32.831Z,83.98
2023-03-21T06:31:00.305Z,83.44
2023-03-21T06:33:57.258Z,82.57
2023-03-21T06:36:54.276Z,82.12
2023-03-21T06:39:26.015Z,81.87
2023-03-21T06:42:22.606Z,81.64
2023-03-21T06:44:50.645Z,81.19
2023-03-21T06:47:19.281Z,80.48
2023-03-21T06:50:53.400Z,81.39
2023-03-21T06:53:28.881Z,80.28
2023-03-21T06:56:35.274Z,80.93
2023-03-21T06:59:42.801Z,81.00
2023-03-21T07:02:16.250Z,77.76
2023-03-21T07:04:54.306Z,78.30
2023-03-21T07:07:32.401Z,79.01
2023-03-21T07:09:59.967Z,79.10
2023-03-21T07:16:14.499Z,76.30
2023-03-21T07:22:42.684Z,76.13
2023-03-21T07:25:55.660Z,75.85
2023-03-21T07:28:23.718Z,77.39
2023-03-21T07:31:46.927Z,75.38
2023-03-21T07:34:32.517Z,73.98
2023-03-21T07:37:16.286Z,72.73
2023-03-21T07:40:26.003Z,72.12
2023-03-21T07:42:55.695Z,71.70
2023-03-21T07:45:35.399Z,69.29
2023-03-21T07:48:46.792Z,70.38
2023-03-21T07:51:14.119Z,70.26
2023-03-21T07:53:47.883Z,70.17
2023-03-21T07:56:41.699Z,69.76
2023-03-21T07:59:09.396Z,69.07
2023-03-21T08:01:37.204Z,68.56
2023-03-21T08:04:30.160Z,70.10
2023-03-21T08:07:43.909Z,69.28
2023-03-21T08:10:15.837Z,69.70
2023-03-21T08:17:05.765Z,66.03
2023-03-21T08:19:33.186Z,66.96
2023-03-21T08:22:26.479Z,66.83
2023-03-21T08:25:32.776Z,65.40
2023-03-21T08:28:36.355Z,65.67
2023-03-21T08:35:01.998Z,66.05
2023-03-21T08:38:03.590Z,65.06
2023-03-21T08:41:14.790Z,64.69
2023-03-21T08:47:30.937Z,62.72
2023-03-21T08:50:49.817Z,61.82
2023-03-21T08:54:09.778Z,60.15
2023-03-21T08:56:38.597Z,61.46
2023-03-21T08:59:20.787Z,60.51
2023-03-21T09:01:48.277Z,59.20
2023-03-21T09:04:27.481Z,60.13
2023-03-21T09:07:26.133Z,58.72
2023-03-21T09:10:25.677Z,58.98
2023-03-21T09:13:21.600Z,58.37
2023-03-21T09:16:43.616Z,58.43
2023-03-21T09:19:12.740Z,58.76
2023-03-21T09:22:06.308Z,58.17
2023-03-21T09:29:00.275Z,57.52
2023-03-21T09:31:29.944Z,56.71
2023-03-21T09:33:58.735Z,55.79
2023-03-21T09:36:27.111Z,55.70
2023-03-21T09:38:56.744Z,55.50
2023-03-21T09:41:57.301Z,55.59
2023-03-21T09:44:58.917Z,55.18
2023-03-21T09:47:34.662Z,54.80
2023-03-21T09:50:27.052Z,53.63
2023-03-21T09:53:00.935Z,53.16
2023-03-21T09:55:38.162Z,52.93
2023-03-21T09:58:30.644Z,52.35
2023-03-21T10:18:28.947Z,53.20
2023-03-21T10:24:48.542Z,52.87
2023-03-21T10:31:07.759Z,52.89
2023-03-21T10:44:17.649Z,51.99
2023-03-21T10:46:57.143Z,51.72
2023-03-21T10:57:17.818Z,49.74
2023-03-21T11:12:49.925Z,50.47
2023-03-21T11:22:12.504Z,50.89
2023-03-21T11:32:13.831Z,50.74
2023-03-21T11:48:58.149Z,50.41
2023-03-21T11:59:02.905Z,49.70
2023-03-21T12:04:53.646Z,49.34
2023-03-21T12:07:58.355Z,49.01
2023-03-21T13:15:28.517Z,42.91
2023-03-21T13:18:26.433Z,43.18
2023-03-21T13:21:04.363Z,43.02
2023-03-21T13:23:39.275Z,43.08
2023-03-21T13:26:11.915Z,42.12
2023-03-21T13:28:41.088Z,41.44
2023-03-21T13:31:27.720Z,41.63
2023-03-21T13:33:59.469Z,41.71
2023-03-21T13:36:37.546Z,42.00
2023-03-21T13:39:06.360Z,42.00
2023-03-21T13:41:42.303Z,41.33
2023-03-21T13:55:04.489Z,41.08
2023-03-21T13:57:33.071Z,40.33
2023-03-21T14:03:24.172Z,40.83
2023-03-21T14:06:05.032Z,40.54
2023-03-21T14:08:58.543Z,40.99
2023-03-21T14:11:54.715Z,41.07
2023-03-21T14:15:20.568Z,41.11
2023-03-21T14:18:15.989Z,41.41
2023-03-21T14:21:09.212Z,41.09
2023-03-21T14:24:14.496Z,40.54
2023-03-21T14:27:19.833Z,40.81
2023-03-21T14:29:52.859Z,40.93
2023-03-21T14:32:28.613Z,40.97
2023-03-21T14:35:01.577Z,39.91
2023-03-21T14:40:37.524Z,40.24
2023-03-21T14:43:09.780Z,39.72
2023-03-21T14:45:41.210Z,39.65
2023-03-21T14:48:37.235Z,40.28
2023-03-21T14:53:50.872Z,39.32
2023-03-21T14:56:24.845Z,39.02
2023-03-21T14:58:54.905Z,39.02
2023-03-21T15:01:34.957Z,39.03
2023-03-21T15:04:06.068Z,39.73
2023-03-21T15:06:57.199Z,40.10
2023-03-21T15:09:30.317Z,40.42
2023-03-21T15:12:01.561Z,40.83
2023-03-21T15:14:41.449Z,41.00
2023-03-21T15:17:24.675Z,40.68
2023-03-21T15:19:52.114Z,40.59
2023-03-21T15:22:34.953Z,40.24
2023-03-21T15:25:12.294Z,41.48
2023-03-21T15:27:42.521Z,41.09
2023-03-21T15:30:27.923Z,41.03
2023-03-21T15:33:07.280Z,41.25
2023-03-21T15:36:09.327Z,41.19
2023-03-21T15:38:45.167Z,41.55
2023-03-21T15:41:19.815Z,41.81
2023-03-21T15:43:54.624Z,42.01
2023-03-21T15:46:53.963Z,42.39
2023-03-21T15:49:40.280Z,42.38
2023-03-21T15:52:16.484Z,42.67
2023-03-21T15:54:58.959Z,42.10
2023-03-21T15:57:32.282Z,42.16
2023-03-21T16:00:19.605Z,42.30
2023-03-21T16:02:53.070Z,43.34
2023-03-21T16:05:34.713Z,42.75
2023-03-21T16:08:31.061Z,42.86
2023-03-21T16:11:27.865Z,43.52
2023-03-21T16:13:56.445Z,43.43
2023-03-21T16:16:29.346Z,43.94
2023-03-21T16:18:59.533Z,44.28
2023-03-21T16:21:33.190Z,44.46
2023-03-21T16:24:01.709Z,44.72
2023-03-21T16:26:36.086Z,44.84
2023-03-21T16:29:06.112Z,44.99
2023-03-21T16:31:36.774Z,45.07
2023-03-21T16:34:04.859Z,45.41
2023-03-21T16:36:42.852Z,45.57
2023-03-21T16:39:17.547Z,45.84
2023-03-21T16:41:46.211Z,46.22
2023-03-21T16:44:14.888Z,46.63
2023-03-21T16:46:42.496Z,47.09
2023-03-21T16:49:26.275Z,47.44
2023-03-21T16:51:56.984Z,47.53
2023-03-21T16:54:25.430Z,48.14
2023-03-21T16:56:55.378Z,47.95
2023-03-21T16:59:23.434Z,48.14
2023-03-21T17:01:51.195Z,48.36
2023-03-21T17:04:20.473Z,48.67
2023-03-21T17:06:53.657Z,49.13
2023-03-21T17:09:26.798Z,49.61
2023-03-21T17:11:55.867Z,49.38
2023-03-21T17:14:24.198Z,49.34
2023-03-21T17:16:52.126Z,49.76
2023-03-21T17:22:17.121Z,49.09
2023-03-21T17:24:45.543Z,49.18
2023-03-21T17:27:43.470Z,49.28
2023-03-21T17:30:30.537Z,49.92
2023-03-21T17:33:01.925Z,50.50
2023-03-21T17:38:54.598Z,50.61
2023-03-21T17:41:23.157Z,51.63
2023-03-21T17:47:51.719Z,52.52
2023-03-21T17:50:23.602Z,52.75
2023-03-21T17:52:52.635Z,53.41
2023-03-21T17:55:20.756Z,53.90
2023-03-21T17:58:01.131Z,55.12
2023-03-21T18:00:37.036Z,55.23
2023-03-21T18:03:04.586Z,55.26
2023-03-21T18:05:34.105Z,55.76
2023-03-21T18:08:12.159Z,56.45
2023-03-21T18:11:44.821Z,56.74
2023-03-21T18:14:29.099Z,56.24
2023-03-21T18:17:00.862Z,56.25
2023-03-21T18:19:31.846Z,56.11
2023-03-21T18:22:05.704Z,55.89
2023-03-21T18:24:37.711Z,55.58
2023-03-21T18:27:06.290Z,55.64
2023-03-21T18:32:31.774Z,56.93
2023-03-21T18:35:00.009Z,57.19
2023-03-21T18:37:31.779Z,57.18
2023-03-21T18:40:22.363Z,57.22
2023-03-21T18:43:45.906Z,57.72
2023-03-21T18:45:40.720Z,57.97
2023-03-21T18:48:13.627Z,58.01
2023-03-21T18:50:42.611Z,56.99
2023-03-21T18:53:11.752Z,56.79
2023-03-21T18:55:46.260Z,57.92
2023-03-21T18:58:17.201Z,58.15
2023-03-21T19:00:46.199Z,57.76
2023-03-21T19:03:30.139Z,58.79
2023-03-21T19:06:09.500Z,58.95
2023-03-21T19:08:42.022Z,58.89
2023-03-21T19:11:11.222Z,59.25
2023-03-21T19:13:40.040Z,59.45
2023-03-21T19:16:11.347Z,59.61
2023-03-21T19:18:57.345Z,59.53
2023-03-21T19:21:26.573Z,59.28
2023-03-21T19:26:47.313Z,59.84
2023-03-21T19:29:16.419Z,60.19
2023-03-21T19:31:45.450Z,60.05
2023-03-21T19:34:14.198Z,59.94
2023-03-21T19:36:46.009Z,60.50
2023-03-21T19:39:22.874Z,60.03
2023-03-21T19:41:55.444Z,60.13
2023-03-21T19:44:30.411Z,60.55
2023-03-21T19:46:59.174Z,60.66
2023-03-21T19:49:48.516Z,61.63
2023-03-21T19:52:16.836Z,61.80
2023-03-21T19:54:45.592Z,62.21
2023-03-21T19:57:16.873Z,61.84
2023-03-21T19:59:45.646Z,62.65
2023-03-21T20:02:34.495Z,63.03
2023-03-21T20:05:06.851Z,63.38
2023-03-21T20:07:35.909Z,64.08
2023-03-21T20:10:08.914Z,64.58
2023-03-21T20:12:37.900Z,64.08
2023-03-21T20:15:17.007Z,63.77
2023-03-21T20:17:51.280Z,64.37
2023-03-21T20:20:20.539Z,65.45
2023-03-21T20:23:06.115Z,67.89
2023-03-21T20:25:47.285Z,68.17
2023-03-21T20:28:25.524Z,68.23
2023-03-21T20:30:58.643Z,68.68
2023-03-21T20:33:28.837Z,70.14
2023-03-21T20:36:37.402Z,70.09
2023-03-21T20:38:55.982Z,69.69
2023-03-21T20:41:24.653Z,71.80
2023-03-21T20:46:47.148Z,72.86
2023-03-21T20:49:16.161Z,72.69
2023-03-21T20:52:44.565Z,73.82
2023-03-21T20:54:34.924Z,73.60
2023-03-21T20:57:05.771Z,74.28
2023-03-21T20:59:35.853Z,74.36
2023-03-21T21:02:05.382Z,74.84
2023-03-21T21:04:49.853Z,75.04
2023-03-21T21:07:23.057Z,75.37
2023-03-21T21:09:51.723Z,75.74
2023-03-21T21:12:20.651Z,75.53
2023-03-21T21:14:49.347Z,76.29
2023-03-21T21:17:37.162Z,76.69
2023-03-21T21:20:18.634Z,76.46
2023-03-21T21:22:59.960Z,76.66
2023-03-21T21:25:33.449Z,76.42
2023-03-21T21:28:02.539Z,76.43
2023-03-21T21:30:32.767Z,76.82
2023-03-21T21:33:01.494Z,77.05
2023-03-21T21:35:30.096Z,78.03
2023-03-21T21:37:58.775Z,77.79
2023-03-21T21:40:27.499Z,78.18
2023-03-21T21:42:57.807Z,80.80
2023-03-21T21:45:26.520Z,80.99
2023-03-21T21:47:55.250Z,81.04
2023-03-21T21:53:46.589Z,80.15
2023-03-21T21:56:15.552Z,80.00
2023-03-21T21:58:47.210Z,78.05
2023-03-21T22:01:16.442Z,77.72
2023-03-21T22:03:46.313Z,78.42
2023-03-21T22:06:14.852Z,78.45
2023-03-21T22:08:47.095Z,78.69
2023-03-21T22:11:16.098Z,81.17
2023-03-21T22:13:45.723Z,80.40
2023-03-21T22:16:14.535Z,81.16
2023-03-21T22:18:43.658Z,83.07
2023-03-21T22:21:12.192Z,82.26
2023-03-21T22:23:43.440Z,80.24
2023-03-21T22:26:11.958Z,79.84
2023-03-21T22:28:42.332Z,79.77
2023-03-21T22:31:17.396Z,79.85
2023-03-21T22:33:46.288Z,78.70
2023-03-21T22:36:14.912Z,78.38
2023-03-21T22:38:44.009Z,78.17
2023-03-21T22:41:12.450Z,78.19
2023-03-21T22:43:40.938Z,78.85
2023-03-21T22:46:09.552Z,79.15
2023-03-21T22:48:38.171Z,79.00
2023-03-21T22:54:58.426Z,78.53
2023-03-21T22:57:25.719Z,77.89
2023-03-21T22:59:52.996Z,79.74
2023-03-21T23:02:20.195Z,78.84
2023-03-21T23:04:48.183Z,78.70
2023-03-21T23:07:16.189Z,78.95
2023-03-21T23:09:43.356Z,78.70
2023-03-21T23:12:10.645Z,79.58
2023-03-21T23:14:37.764Z,81.07
2023-03-21T23:17:04.790Z,79.62
2023-03-21T23:19:32.060Z,80.61
2023-03-21T23:21:59.249Z,79.38
2023-03-21T23:24:26.729Z,82.74
2023-03-21T23:26:53.922Z,80.88
2023-03-21T23:29:21.021Z,81.61
2023-03-21T23:31:48.366Z,81.05
2023-03-21T23:34:15.553Z,82.03
2023-03-21T23:36:42.781Z,81.69
2023-03-21T23:39:10.350Z,82.55
2023-03-21T23:41:37.654Z,82.74
2023-03-21T23:44:05.411Z,84.72
2023-03-21T23:46:32.565Z,83.62
2023-03-21T23:48:59.823Z,82.42
2023-03-21T23:51:27.025Z,83.39
2023-03-21T23:53:56.847Z,82.97
2023-03-21T23:56:26.452Z,82.43
2023-03-21T23:58:53.706Z,82.96
